sensor_id;sensor_type;location;lat;lon;timestamp;P1;durP1;ratioP1;P2;durP2;ratioP2
64052;SDS011;50299;49.524;8.536;2024-03-22T00:01:45;5.72;;;3.47;;
64052;SDS011;50299;49.524;8.536;2024-03-22T00:04:11;7.53;;;3.58;;
64052;SDS011;50299;49.524;8.536;2024-03-22T00:06:43;4.60;;;3.45;;
64052;SDS011;50299;49.524;8.536;2024-03-22T00:09:10;3.45;;;2.92;;
64052;SDS011;50299;49.524;8.536;2024-03-22T00:11:36;3.50;;;2.83;;
64052;SDS011;50299;49.524;8.536;2024-03-22T00:14:02;4.18;;;3.22;;
64052;SDS011;50299;49.524;8.536;2024-03-22T00:16:28;3.40;;;3.05;;
64052;SDS011;50299;49.524;8.536;2024-03-22T00:18:54;3.20;;;2.83;;
64052;SDS011;50299;49.524;8.536;2024-03-22T00:21:20;3.20;;;2.65;;
64052;SDS011;50299;49.524;8.536;2024-03-22T00:23:46;3.78;;;3.08;;
64052;SDS011;50299;49.524;8.536;2024-03-22T00:26:12;4.13;;;3.50;;
64052;SDS011;50299;49.524;8.536;2024-03-22T00:28:39;3.60;;;2.63;;
64052;SDS011;50299;49.524;8.536;2024-03-22T00:31:04;6.07;;;3.30;;
64052;SDS011;50299;49.524;8.536;2024-03-22T00:33:30;3.88;;;3.10;;
64052;SDS011;50299;49.524;8.536;2024-03-22T00:36:05;3.97;;;3.58;;
64052;SDS011;50299;49.524;8.536;2024-03-22T00:38:31;4.00;;;3.33;;
64052;SDS011;50299;49.524;8.536;2024-03-22T00:40:57;5.30;;;3.35;;
64052;SDS011;50299;49.524;8.536;2024-03-22T00:43:23;7.15;;;4.05;;
64052;SDS011;50299;49.524;8.536;2024-03-22T00:45:48;4.05;;;3.47;;
64052;SDS011;50299;49.524;8.536;2024-03-22T00:48:14;6.60;;;4.32;;
64052;SDS011;50299;49.524;8.536;2024-03-22T00:50:40;5.15;;;4.43;;
64052;SDS011;50299;49.524;8.536;2024-03-22T00:53:05;7.57;;;4.38;;
64052;SDS011;50299;49.524;8.536;2024-03-22T00:55:33;6.03;;;4.63;;
64052;SDS011;50299;49.524;8.536;2024-03-22T00:57:59;7.82;;;3.60;;
64052;SDS011;50299;49.524;8.536;2024-03-22T01:00:25;4.85;;;3.33;;
64052;SDS011;50299;49.524;8.536;2024-03-22T01:02:50;4.70;;;3.28;;
64052;SDS011;50299;49.524;8.536;2024-03-22T01:05:16;5.95;;;3.95;;
64052;SDS011;50299;49.524;8.536;2024-03-22T01:07:42;5.95;;;4.00;;
64052;SDS011;50299;49.524;8.536;2024-03-22T01:10:08;6.22;;;3.92;;
64052;SDS011;50299;49.524;8.536;2024-03-22T01:12:35;4.88;;;4.05;;
64052;SDS011;50299;49.524;8.536;2024-03-22T01:15:00;5.25;;;3.63;;
64052;SDS011;50299;49.524;8.536;2024-03-22T01:17:26;8.50;;;3.83;;
64052;SDS011;50299;49.524;8.536;2024-03-22T01:19:51;4.53;;;4.07;;
64052;SDS011;50299;49.524;8.536;2024-03-22T01:22:17;5.32;;;3.58;;
64052;SDS011;50299;49.524;8.536;2024-03-22T01:24:43;5.43;;;3.60;;
64052;SDS011;50299;49.524;8.536;2024-03-22T01:27:09;5.00;;;3.92;;
64052;SDS011;50299;49.524;8.536;2024-03-22T01:29:35;6.25;;;4.18;;
64052;SDS011;50299;49.524;8.536;2024-03-22T01:32:01;6.28;;;4.18;;
64052;SDS011;50299;49.524;8.536;2024-03-22T01:34:30;6.28;;;4.30;;
64052;SDS011;50299;49.524;8.536;2024-03-22T01:36:56;9.35;;;5.47;;
64052;SDS011;50299;49.524;8.536;2024-03-22T01:39:21;8.80;;;5.43;;
64052;SDS011;50299;49.524;8.536;2024-03-22T01:41:50;8.43;;;5.38;;
64052;SDS011;50299;49.524;8.536;2024-03-22T01:44:16;8.32;;;5.20;;
64052;SDS011;50299;49.524;8.536;2024-03-22T01:46:43;8.95;;;5.32;;
64052;SDS011;50299;49.524;8.536;2024-03-22T01:49:10;8.15;;;4.93;;
64052;SDS011;50299;49.524;8.536;2024-03-22T01:51:39;9.52;;;5.20;;
64052;SDS011;50299;49.524;8.536;2024-03-22T01:54:05;8.80;;;5.20;;
64052;SDS011;50299;49.524;8.536;2024-03-22T01:56:34;6.32;;;4.40;;
64052;SDS011;50299;49.524;8.536;2024-03-22T01:59:02;5.50;;;4.18;;
64052;SDS011;50299;49.524;8.536;2024-03-22T02:01:32;7.05;;;3.95;;
64052;SDS011;50299;49.524;8.536;2024-03-22T02:03:59;8.05;;;4.78;;
64052;SDS011;50299;49.524;8.536;2024-03-22T02:06:25;7.75;;;5.55;;
64052;SDS011;50299;49.524;8.536;2024-03-22T02:08:51;7.13;;;4.15;;
64052;SDS011;50299;49.524;8.536;2024-03-22T02:11:16;6.97;;;4.53;;
64052;SDS011;50299;49.524;8.536;2024-03-22T02:13:42;5.20;;;4.22;;
64052;SDS011;50299;49.524;8.536;2024-03-22T02:16:10;7.70;;;4.75;;
64052;SDS011;50299;49.524;8.536;2024-03-22T02:18:36;8.85;;;4.57;;
64052;SDS011;50299;49.524;8.536;2024-03-22T02:21:02;6.97;;;4.60;;
64052;SDS011;50299;49.524;8.536;2024-03-22T02:26:00;5.22;;;3.80;;
64052;SDS011;50299;49.524;8.536;2024-03-22T02:28:26;11.27;;;5.63;;
64052;SDS011;50299;49.524;8.536;2024-03-22T02:30:52;8.02;;;4.47;;
64052;SDS011;50299;49.524;8.536;2024-03-22T02:33:17;6.43;;;4.20;;
64052;SDS011;50299;49.524;8.536;2024-03-22T02:35:43;6.10;;;4.43;;
64052;SDS011;50299;49.524;8.536;2024-03-22T02:38:11;6.55;;;4.03;;
64052;SDS011;50299;49.524;8.536;2024-03-22T02:40:37;7.85;;;5.00;;
64052;SDS011;50299;49.524;8.536;2024-03-22T02:43:02;6.30;;;4.78;;
64052;SDS011;50299;49.524;8.536;2024-03-22T02:45:29;6.10;;;3.97;;
64052;SDS011;50299;49.524;8.536;2024-03-22T02:47:56;5.03;;;3.55;;
64052;SDS011;50299;49.524;8.536;2024-03-22T02:50:21;5.20;;;4.70;;
64052;SDS011;50299;49.524;8.536;2024-03-22T02:52:48;5.40;;;3.85;;
64052;SDS011;50299;49.524;8.536;2024-03-22T02:55:14;5.90;;;4.38;;
64052;SDS011;50299;49.524;8.536;2024-03-22T02:57:39;5.80;;;4.00;;
64052;SDS011;50299;49.524;8.536;2024-03-22T03:03:06;4.47;;;3.95;;
64052;SDS011;50299;49.524;8.536;2024-03-22T03:05:32;5.18;;;4.43;;
64052;SDS011;50299;49.524;8.536;2024-03-22T03:07:58;6.25;;;4.57;;
64052;SDS011;50299;49.524;8.536;2024-03-22T03:10:23;10.15;;;5.13;;
64052;SDS011;50299;49.524;8.536;2024-03-22T03:12:49;7.30;;;4.47;;
64052;SDS011;50299;49.524;8.536;2024-03-22T03:15:15;5.18;;;3.33;;
64052;SDS011;50299;49.524;8.536;2024-03-22T03:17:41;5.50;;;3.70;;
64052;SDS011;50299;49.524;8.536;2024-03-22T03:20:06;7.25;;;4.53;;
64052;SDS011;50299;49.524;8.536;2024-03-22T03:22:33;6.82;;;4.80;;
64052;SDS011;50299;49.524;8.536;2024-03-22T03:25:00;7.80;;;4.63;;
64052;SDS011;50299;49.524;8.536;2024-03-22T03:27:25;6.70;;;4.60;;
64052;SDS011;50299;49.524;8.536;2024-03-22T03:29:51;7.70;;;4.80;;
64052;SDS011;50299;49.524;8.536;2024-03-22T03:32:19;8.68;;;5.00;;
64052;SDS011;50299;49.524;8.536;2024-03-22T03:34:45;5.35;;;4.40;;
64052;SDS011;50299;49.524;8.536;2024-03-22T03:37:11;8.50;;;4.63;;
64052;SDS011;50299;49.524;8.536;2024-03-22T03:39:36;4.53;;;4.07;;
64052;SDS011;50299;49.524;8.536;2024-03-22T03:42:02;6.45;;;4.70;;
64052;SDS011;50299;49.524;8.536;2024-03-22T03:44:27;7.05;;;5.03;;
64052;SDS011;50299;49.524;8.536;2024-03-22T03:46:53;5.30;;;4.40;;
64052;SDS011;50299;49.524;8.536;2024-03-22T03:49:18;7.95;;;4.32;;
64052;SDS011;50299;49.524;8.536;2024-03-22T03:51:44;5.60;;;4.55;;
64052;SDS011;50299;49.524;8.536;2024-03-22T03:54:09;5.88;;;4.35;;
64052;SDS011;50299;49.524;8.536;2024-03-22T03:56:35;6.47;;;4.55;;
64052;SDS011;50299;49.524;8.536;2024-03-22T03:59:00;4.78;;;3.65;;
64052;SDS011;50299;49.524;8.536;2024-03-22T04:01:26;6.20;;;4.65;;
64052;SDS011;50299;49.524;8.536;2024-03-22T04:03:51;7.18;;;4.43;;
64052;SDS011;50299;49.524;8.536;2024-03-22T04:06:17;8.45;;;4.78;;
64052;SDS011;50299;49.524;8.536;2024-03-22T04:08:43;7.32;;;5.45;;
64052;SDS011;50299;49.524;8.536;2024-03-22T04:11:09;8.10;;;4.35;;
64052;SDS011;50299;49.524;8.536;2024-03-22T04:13:35;6.15;;;4.47;;
64052;SDS011;50299;49.524;8.536;2024-03-22T04:16:00;7.38;;;5.20;;
64052;SDS011;50299;49.524;8.536;2024-03-22T04:18:26;6.70;;;4.93;;
64052;SDS011;50299;49.524;8.536;2024-03-22T04:20:59;5.53;;;4.47;;
64052;SDS011;50299;49.524;8.536;2024-03-22T04:23:25;5.80;;;3.88;;
64052;SDS011;50299;49.524;8.536;2024-03-22T04:25:58;10.20;;;4.93;;
64052;SDS011;50299;49.524;8.536;2024-03-22T04:28:24;7.72;;;5.35;;
64052;SDS011;50299;49.524;8.536;2024-03-22T04:31:00;8.05;;;4.63;;
64052;SDS011;50299;49.524;8.536;2024-03-22T04:33:28;7.22;;;4.18;;
64052;SDS011;50299;49.524;8.536;2024-03-22T04:35:55;6.68;;;4.82;;
64052;SDS011;50299;49.524;8.536;2024-03-22T04:38:22;7.47;;;4.93;;
64052;SDS011;50299;49.524;8.536;2024-03-22T04:40:48;6.35;;;4.85;;
64052;SDS011;50299;49.524;8.536;2024-03-22T04:43:14;7.82;;;5.13;;
64052;SDS011;50299;49.524;8.536;2024-03-22T04:45:42;8.38;;;4.97;;
64052;SDS011;50299;49.524;8.536;2024-03-22T04:48:08;9.30;;;5.22;;
64052;SDS011;50299;49.524;8.536;2024-03-22T04:50:34;9.20;;;5.90;;
64052;SDS011;50299;49.524;8.536;2024-03-22T04:53:00;13.90;;;5.70;;
64052;SDS011;50299;49.524;8.536;2024-03-22T04:55:29;6.15;;;4.53;;
64052;SDS011;50299;49.524;8.536;2024-03-22T04:57:54;7.55;;;5.15;;
64052;SDS011;50299;49.524;8.536;2024-03-22T05:00:20;6.82;;;5.65;;
64052;SDS011;50299;49.524;8.536;2024-03-22T05:02:45;6.10;;;4.63;;
64052;SDS011;50299;49.524;8.536;2024-03-22T05:05:11;8.50;;;5.50;;
64052;SDS011;50299;49.524;8.536;2024-03-22T05:07:37;6.57;;;4.93;;
64052;SDS011;50299;49.524;8.536;2024-03-22T05:10:03;7.65;;;5.25;;
64052;SDS011;50299;49.524;8.536;2024-03-22T05:12:29;11.85;;;5.75;;
64052;SDS011;50299;49.524;8.536;2024-03-22T05:14:54;8.02;;;5.30;;
64052;SDS011;50299;49.524;8.536;2024-03-22T05:17:20;7.13;;;4.63;;
64052;SDS011;50299;49.524;8.536;2024-03-22T05:19:46;6.95;;;5.07;;
64052;SDS011;50299;49.524;8.536;2024-03-22T05:22:12;5.88;;;4.57;;
64052;SDS011;50299;49.524;8.536;2024-03-22T05:24:37;6.65;;;4.82;;
64052;SDS011;50299;49.524;8.536;2024-03-22T05:27:03;5.22;;;4.22;;
64052;SDS011;50299;49.524;8.536;2024-03-22T05:29:29;6.35;;;4.85;;
64052;SDS011;50299;49.524;8.536;2024-03-22T05:31:54;5.45;;;4.43;;
64052;SDS011;50299;49.524;8.536;2024-03-22T05:34:20;6.90;;;4.38;;
64052;SDS011;50299;49.524;8.536;2024-03-22T05:36:46;7.15;;;5.18;;
64052;SDS011;50299;49.524;8.536;2024-03-22T05:39:11;6.95;;;4.50;;
64052;SDS011;50299;49.524;8.536;2024-03-22T05:41:37;7.85;;;4.53;;
64052;SDS011;50299;49.524;8.536;2024-03-22T05:44:03;6.95;;;4.78;;
64052;SDS011;50299;49.524;8.536;2024-03-22T05:46:30;7.75;;;4.93;;
64052;SDS011;50299;49.524;8.536;2024-03-22T05:48:56;9.30;;;4.88;;
64052;SDS011;50299;49.524;8.536;2024-03-22T05:51:24;7.38;;;5.15;;
64052;SDS011;50299;49.524;8.536;2024-03-22T05:53:50;7.55;;;4.57;;
64052;SDS011;50299;49.524;8.536;2024-03-22T05:56:15;8.90;;;4.88;;
64052;SDS011;50299;49.524;8.536;2024-03-22T05:58:41;5.43;;;4.35;;
64052;SDS011;50299;49.524;8.536;2024-03-22T06:01:07;9.00;;;4.30;;
64052;SDS011;50299;49.524;8.536;2024-03-22T06:03:32;6.63;;;4.53;;
64052;SDS011;50299;49.524;8.536;2024-03-22T06:05:59;7.25;;;4.80;;
64052;SDS011;50299;49.524;8.536;2024-03-22T06:08:28;8.25;;;5.78;;
64052;SDS011;50299;49.524;8.536;2024-03-22T06:10:54;8.88;;;5.05;;
64052;SDS011;50299;49.524;8.536;2024-03-22T06:13:21;8.02;;;5.43;;
64052;SDS011;50299;49.524;8.536;2024-03-22T06:15:50;7.93;;;4.18;;
64052;SDS011;50299;49.524;8.536;2024-03-22T06:18:16;7.20;;;5.22;;
64052;SDS011;50299;49.524;8.536;2024-03-22T06:20:42;8.30;;;4.35;;
64052;SDS011;50299;49.524;8.536;2024-03-22T06:23:08;7.07;;;5.22;;
64052;SDS011;50299;49.524;8.536;2024-03-22T06:25:34;7.82;;;5.13;;
64052;SDS011;50299;49.524;8.536;2024-03-22T06:28:00;9.63;;;5.20;;
64052;SDS011;50299;49.524;8.536;2024-03-22T06:30:26;6.43;;;4.65;;
64052;SDS011;50299;49.524;8.536;2024-03-22T06:32:52;6.90;;;4.85;;
64052;SDS011;50299;49.524;8.536;2024-03-22T06:35:20;7.50;;;4.95;;
64052;SDS011;50299;49.524;8.536;2024-03-22T06:37:46;9.38;;;5.40;;
64052;SDS011;50299;49.524;8.536;2024-03-22T06:40:11;7.57;;;5.00;;
64052;SDS011;50299;49.524;8.536;2024-03-22T06:42:37;5.93;;;5.13;;
64052;SDS011;50299;49.524;8.536;2024-03-22T06:45:02;8.32;;;5.22;;
64052;SDS011;50299;49.524;8.536;2024-03-22T06:47:28;9.05;;;6.35;;
64052;SDS011;50299;49.524;8.536;2024-03-22T06:49:54;6.65;;;5.18;;
64052;SDS011;50299;49.524;8.536;2024-03-22T06:52:19;7.68;;;5.28;;
64052;SDS011;50299;49.524;8.536;2024-03-22T06:54:46;8.88;;;6.07;;
64052;SDS011;50299;49.524;8.536;2024-03-22T06:57:12;6.75;;;4.93;;
64052;SDS011;50299;49.524;8.536;2024-03-22T06:59:37;7.97;;;5.50;;
64052;SDS011;50299;49.524;8.536;2024-03-22T07:02:03;6.75;;;4.97;;
64052;SDS011;50299;49.524;8.536;2024-03-22T07:04:28;7.28;;;5.53;;
64052;SDS011;50299;49.524;8.536;2024-03-22T07:06:54;6.47;;;5.25;;
64052;SDS011;50299;49.524;8.536;2024-03-22T07:09:20;6.15;;;5.05;;
64052;SDS011;50299;49.524;8.536;2024-03-22T07:11:46;8.60;;;5.13;;
64052;SDS011;50299;49.524;8.536;2024-03-22T07:14:11;8.65;;;5.20;;
64052;SDS011;50299;49.524;8.536;2024-03-22T07:16:37;6.78;;;4.63;;
64052;SDS011;50299;49.524;8.536;2024-03-22T07:19:06;9.25;;;5.43;;
64052;SDS011;50299;49.524;8.536;2024-03-22T07:21:31;7.03;;;4.65;;
64052;SDS011;50299;49.524;8.536;2024-03-22T07:23:57;5.70;;;4.93;;
64052;SDS011;50299;49.524;8.536;2024-03-22T07:26:22;8.57;;;4.85;;
64052;SDS011;50299;49.524;8.536;2024-03-22T07:28:48;5.50;;;4.50;;
64052;SDS011;50299;49.524;8.536;2024-03-22T07:31:14;6.03;;;4.15;;
64052;SDS011;50299;49.524;8.536;2024-03-22T07:33:39;5.10;;;4.35;;
64052;SDS011;50299;49.524;8.536;2024-03-22T07:36:05;5.10;;;3.85;;
64052;SDS011;50299;49.524;8.536;2024-03-22T07:38:31;5.95;;;4.88;;
64052;SDS011;50299;49.524;8.536;2024-03-22T07:40:57;5.07;;;3.78;;
64052;SDS011;50299;49.524;8.536;2024-03-22T07:43:23;5.72;;;4.53;;
64052;SDS011;50299;49.524;8.536;2024-03-22T07:45:49;6.35;;;4.88;;
64052;SDS011;50299;49.524;8.536;2024-03-22T07:48:14;5.85;;;4.05;;
64052;SDS011;50299;49.524;8.536;2024-03-22T07:50:41;6.50;;;4.50;;
64052;SDS011;50299;49.524;8.536;2024-03-22T07:53:06;4.85;;;3.85;;
64052;SDS011;50299;49.524;8.536;2024-03-22T07:55:32;4.72;;;4.32;;
64052;SDS011;50299;49.524;8.536;2024-03-22T07:57:58;5.75;;;4.20;;
64052;SDS011;50299;49.524;8.536;2024-03-22T08:00:23;5.72;;;4.72;;
64052;SDS011;50299;49.524;8.536;2024-03-22T08:02:53;5.60;;;4.50;;
64052;SDS011;50299;49.524;8.536;2024-03-22T08:05:19;5.65;;;3.80;;
64052;SDS011;50299;49.524;8.536;2024-03-22T08:07:45;6.70;;;4.53;;
64052;SDS011;50299;49.524;8.536;2024-03-22T08:10:10;4.68;;;3.95;;
64052;SDS011;50299;49.524;8.536;2024-03-22T08:12:36;5.30;;;4.07;;
64052;SDS011;50299;49.524;8.536;2024-03-22T08:15:02;5.60;;;4.40;;
64052;SDS011;50299;49.524;8.536;2024-03-22T08:17:28;6.00;;;4.57;;
64052;SDS011;50299;49.524;8.536;2024-03-22T08:19:53;6.70;;;4.32;;
64052;SDS011;50299;49.524;8.536;2024-03-22T08:22:19;5.30;;;4.05;;
64052;SDS011;50299;49.524;8.536;2024-03-22T08:24:45;8.25;;;4.57;;
64052;SDS011;50299;49.524;8.536;2024-03-22T08:27:11;7.53;;;3.88;;
64052;SDS011;50299;49.524;8.536;2024-03-22T08:29:37;7.15;;;4.50;;
64052;SDS011;50299;49.524;8.536;2024-03-22T08:32:03;4.57;;;3.95;;
64052;SDS011;50299;49.524;8.536;2024-03-22T08:34:32;7.55;;;4.20;;
64052;SDS011;50299;49.524;8.536;2024-03-22T08:36:58;10.13;;;5.22;;
64052;SDS011;50299;49.524;8.536;2024-03-22T08:39:24;5.80;;;4.43;;
64052;SDS011;50299;49.524;8.536;2024-03-22T08:41:51;5.03;;;4.53;;
64052;SDS011;50299;49.524;8.536;2024-03-22T08:44:16;7.40;;;5.25;;
64052;SDS011;50299;49.524;8.536;2024-03-22T08:46:42;7.57;;;4.43;;
64052;SDS011;50299;49.524;8.536;2024-03-22T08:49:08;10.02;;;5.22;;
64052;SDS011;50299;49.524;8.536;2024-03-22T08:51:33;6.88;;;4.45;;
64052;SDS011;50299;49.524;8.536;2024-03-22T08:53:59;7.47;;;4.15;;
64052;SDS011;50299;49.524;8.536;2024-03-22T08:56:26;7.30;;;4.15;;
64052;SDS011;50299;49.524;8.536;2024-03-22T08:58:51;6.80;;;4.30;;
64052;SDS011;50299;49.524;8.536;2024-03-22T09:01:17;6.10;;;4.63;;
64052;SDS011;50299;49.524;8.536;2024-03-22T09:03:42;9.43;;;5.18;;
64052;SDS011;50299;49.524;8.536;2024-03-22T09:06:11;5.70;;;4.38;;
64052;SDS011;50299;49.524;8.536;2024-03-22T09:08:37;7.72;;;4.45;;
64052;SDS011;50299;49.524;8.536;2024-03-22T09:11:03;7.55;;;4.40;;
64052;SDS011;50299;49.524;8.536;2024-03-22T09:13:30;9.65;;;4.65;;
64052;SDS011;50299;49.524;8.536;2024-03-22T09:15:56;5.50;;;4.13;;
64052;SDS011;50299;49.524;8.536;2024-03-22T09:18:25;6.20;;;4.28;;
64052;SDS011;50299;49.524;8.536;2024-03-22T09:20:52;5.35;;;4.43;;
64052;SDS011;50299;49.524;8.536;2024-03-22T09:23:18;6.55;;;4.60;;
64052;SDS011;50299;49.524;8.536;2024-03-22T09:25:44;8.73;;;4.55;;
64052;SDS011;50299;49.524;8.536;2024-03-22T09:28:11;5.30;;;4.10;;
64052;SDS011;50299;49.524;8.536;2024-03-22T09:30:37;6.45;;;4.50;;
64052;SDS011;50299;49.524;8.536;2024-03-22T09:33:04;4.38;;;3.53;;
64052;SDS011;50299;49.524;8.536;2024-03-22T09:35:31;10.48;;;4.55;;
64052;SDS011;50299;49.524;8.536;2024-03-22T09:37:57;7.20;;;4.30;;
64052;SDS011;50299;49.524;8.536;2024-03-22T09:40:23;4.57;;;3.47;;
64052;SDS011;50299;49.524;8.536;2024-03-22T09:42:54;5.55;;;3.90;;
64052;SDS011;50299;49.524;8.536;2024-03-22T09:45:27;6.55;;;4.25;;
64052;SDS011;50299;49.524;8.536;2024-03-22T09:47:53;8.73;;;4.63;;
64052;SDS011;50299;49.524;8.536;2024-03-22T09:50:21;7.13;;;3.80;;
64052;SDS011;50299;49.524;8.536;2024-03-22T09:52:46;4.85;;;3.67;;
64052;SDS011;50299;49.524;8.536;2024-03-22T09:55:13;7.20;;;3.67;;
64052;SDS011;50299;49.524;8.536;2024-03-22T09:57:39;6.60;;;4.07;;
64052;SDS011;50299;49.524;8.536;2024-03-22T10:00:06;5.95;;;3.58;;
64052;SDS011;50299;49.524;8.536;2024-03-22T10:02:33;7.22;;;3.80;;
64052;SDS011;50299;49.524;8.536;2024-03-22T10:04:59;4.95;;;3.42;;
64052;SDS011;50299;49.524;8.536;2024-03-22T10:07:25;9.52;;;3.80;;
64052;SDS011;50299;49.524;8.536;2024-03-22T10:09:51;5.75;;;3.88;;
64052;SDS011;50299;49.524;8.536;2024-03-22T10:12:17;3.60;;;2.70;;
64052;SDS011;50299;49.524;8.536;2024-03-22T10:14:43;6.18;;;3.10;;
64052;SDS011;50299;49.524;8.536;2024-03-22T10:17:09;4.13;;;3.53;;
64052;SDS011;50299;49.524;8.536;2024-03-22T10:19:35;4.03;;;2.80;;
64052;SDS011;50299;49.524;8.536;2024-03-22T10:22:01;3.28;;;2.70;;
64052;SDS011;50299;49.524;8.536;2024-03-22T10:24:30;5.60;;;3.05;;
64052;SDS011;50299;49.524;8.536;2024-03-22T10:26:57;4.57;;;2.92;;
64052;SDS011;50299;49.524;8.536;2024-03-22T10:29:22;7.43;;;3.45;;
64052;SDS011;50299;49.524;8.536;2024-03-22T10:31:50;3.55;;;2.85;;
64052;SDS011;50299;49.524;8.536;2024-03-22T10:34:17;4.35;;;3.20;;
64052;SDS011;50299;49.524;8.536;2024-03-22T10:36:43;3.00;;;2.60;;
64052;SDS011;50299;49.524;8.536;2024-03-22T10:39:09;2.85;;;2.13;;
64052;SDS011;50299;49.524;8.536;2024-03-22T10:41:38;2.92;;;2.58;;
64052;SDS011;50299;49.524;8.536;2024-03-22T10:44:03;2.95;;;2.28;;
64052;SDS011;50299;49.524;8.536;2024-03-22T10:46:30;3.67;;;2.70;;
64052;SDS011;50299;49.524;8.536;2024-03-22T10:48:59;6.30;;;3.40;;
64052;SDS011;50299;49.524;8.536;2024-03-22T10:51:29;2.67;;;2.42;;
64052;SDS011;50299;49.524;8.536;2024-03-22T10:53:56;3.15;;;2.78;;
64052;SDS011;50299;49.524;8.536;2024-03-22T10:56:24;4.05;;;3.00;;
64052;SDS011;50299;49.524;8.536;2024-03-22T10:58:51;3.17;;;2.60;;
64052;SDS011;50299;49.524;8.536;2024-03-22T11:01:26;3.10;;;2.70;;
64052;SDS011;50299;49.524;8.536;2024-03-22T11:04:05;3.67;;;2.55;;
64052;SDS011;50299;49.524;8.536;2024-03-22T11:06:40;5.20;;;2.88;;
64052;SDS011;50299;49.524;8.536;2024-03-22T11:09:05;3.70;;;2.83;;
64052;SDS011;50299;49.524;8.536;2024-03-22T11:11:35;3.08;;;2.33;;
64052;SDS011;50299;49.524;8.536;2024-03-22T11:14:03;5.05;;;2.90;;
64052;SDS011;50299;49.524;8.536;2024-03-22T11:16:29;3.17;;;2.78;;
64052;SDS011;50299;49.524;8.536;2024-03-22T11:18:55;3.92;;;2.53;;
64052;SDS011;50299;49.524;8.536;2024-03-22T11:21:21;3.28;;;2.33;;
64052;SDS011;50299;49.524;8.536;2024-03-22T11:23:46;3.30;;;2.20;;
64052;SDS011;50299;49.524;8.536;2024-03-22T11:26:12;4.03;;;2.45;;
64052;SDS011;50299;49.524;8.536;2024-03-22T11:28:42;2.63;;;2.40;;
64052;SDS011;50299;49.524;8.536;2024-03-22T11:31:07;3.67;;;2.45;;
64052;SDS011;50299;49.524;8.536;2024-03-22T11:33:33;3.90;;;2.65;;
64052;SDS011;50299;49.524;8.536;2024-03-22T11:35:59;2.40;;;2.20;;
64052;SDS011;50299;49.524;8.536;2024-03-22T11:38:26;3.35;;;2.10;;
64052;SDS011;50299;49.524;8.536;2024-03-22T11:40:52;2.50;;;2.30;;
64052;SDS011;50299;49.524;8.536;2024-03-22T11:43:19;2.15;;;1.85;;
64052;SDS011;50299;49.524;8.536;2024-03-22T11:45:45;2.80;;;2.28;;
64052;SDS011;50299;49.524;8.536;2024-03-22T11:48:11;1.85;;;1.67;;
64052;SDS011;50299;49.524;8.536;2024-03-22T11:50:39;2.42;;;1.75;;
64052;SDS011;50299;49.524;8.536;2024-03-22T11:53:05;2.13;;;1.85;;
64052;SDS011;50299;49.524;8.536;2024-03-22T11:55:31;3.08;;;2.10;;
64052;SDS011;50299;49.524;8.536;2024-03-22T11:57:59;2.22;;;2.03;;
64052;SDS011;50299;49.524;8.536;2024-03-22T12:00:25;4.03;;;2.03;;
64052;SDS011;50299;49.524;8.536;2024-03-22T12:02:52;2.97;;;1.77;;
64052;SDS011;50299;49.524;8.536;2024-03-22T12:05:18;2.35;;;1.63;;
64052;SDS011;50299;49.524;8.536;2024-03-22T12:07:45;1.58;;;1.48;;
64052;SDS011;50299;49.524;8.536;2024-03-22T12:10:11;4.03;;;1.88;;
64052;SDS011;50299;49.524;8.536;2024-03-22T12:12:36;1.75;;;1.50;;
64052;SDS011;50299;49.524;8.536;2024-03-22T12:15:02;2.50;;;1.52;;
64052;SDS011;50299;49.524;8.536;2024-03-22T12:17:29;2.20;;;1.50;;
64052;SDS011;50299;49.524;8.536;2024-03-22T12:19:55;1.60;;;1.30;;
64052;SDS011;50299;49.524;8.536;2024-03-22T12:22:21;2.53;;;1.65;;
64052;SDS011;50299;49.524;8.536;2024-03-22T12:24:47;2.83;;;1.90;;
64052;SDS011;50299;49.524;8.536;2024-03-22T12:27:15;1.80;;;1.70;;
64052;SDS011;50299;49.524;8.536;2024-03-22T12:29:41;1.80;;;1.38;;
64052;SDS011;50299;49.524;8.536;2024-03-22T12:32:07;1.50;;;1.40;;
64052;SDS011;50299;49.524;8.536;2024-03-22T12:34:33;2.08;;;1.73;;
64052;SDS011;50299;49.524;8.536;2024-03-22T12:36:59;1.75;;;1.65;;
64052;SDS011;50299;49.524;8.536;2024-03-22T12:39:25;2.42;;;1.58;;
64052;SDS011;50299;49.524;8.536;2024-03-22T12:41:51;2.40;;;1.55;;
64052;SDS011;50299;49.524;8.536;2024-03-22T12:44:16;4.65;;;1.65;;
64052;SDS011;50299;49.524;8.536;2024-03-22T12:46:42;1.70;;;1.60;;
64052;SDS011;50299;49.524;8.536;2024-03-22T12:49:09;3.33;;;1.83;;
64052;SDS011;50299;49.524;8.536;2024-03-22T12:51:35;1.90;;;1.80;;
64052;SDS011;50299;49.524;8.536;2024-03-22T12:54:02;2.72;;;2.13;;
64052;SDS011;50299;49.524;8.536;2024-03-22T12:56:28;1.80;;;1.70;;
64052;SDS011;50299;49.524;8.536;2024-03-22T12:58:54;2.22;;;1.67;;
64052;SDS011;50299;49.524;8.536;2024-03-22T13:01:19;2.35;;;1.58;;
64052;SDS011;50299;49.524;8.536;2024-03-22T13:03:45;1.67;;;1.48;;
64052;SDS011;50299;49.524;8.536;2024-03-22T13:06:11;2.15;;;1.85;;
64052;SDS011;50299;49.524;8.536;2024-03-22T13:08:37;2.17;;;1.60;;
64052;SDS011;50299;49.524;8.536;2024-03-22T13:11:03;4.70;;;1.55;;
64052;SDS011;50299;49.524;8.536;2024-03-22T13:13:29;1.55;;;1.30;;
64052;SDS011;50299;49.524;8.536;2024-03-22T13:15:58;1.92;;;1.58;;
64052;SDS011;50299;49.524;8.536;2024-03-22T13:20:49;1.55;;;1.45;;
64052;SDS011;50299;49.524;8.536;2024-03-22T13:23:15;1.83;;;1.73;;
64052;SDS011;50299;49.524;8.536;2024-03-22T13:25:40;1.70;;;1.60;;
64052;SDS011;50299;49.524;8.536;2024-03-22T13:28:06;1.70;;;1.60;;
64052;SDS011;50299;49.524;8.536;2024-03-22T13:30:32;2.38;;;1.70;;
64052;SDS011;50299;49.524;8.536;2024-03-22T13:32:57;2.35;;;1.90;;
64052;SDS011;50299;49.524;8.536;2024-03-22T13:35:24;2.05;;;1.75;;
64052;SDS011;50299;49.524;8.536;2024-03-22T13:37:50;1.67;;;1.50;;
64052;SDS011;50299;49.524;8.536;2024-03-22T13:40:15;3.67;;;1.88;;
64052;SDS011;50299;49.524;8.536;2024-03-22T13:42:41;2.00;;;1.63;;
64052;SDS011;50299;49.524;8.536;2024-03-22T13:45:07;2.80;;;2.08;;
64052;SDS011;50299;49.524;8.536;2024-03-22T13:47:33;1.80;;;1.70;;
64052;SDS011;50299;49.524;8.536;2024-03-22T13:50:00;2.25;;;1.58;;
64052;SDS011;50299;49.524;8.536;2024-03-22T13:52:27;2.03;;;1.65;;
64052;SDS011;50299;49.524;8.536;2024-03-22T13:54:52;2.85;;;2.15;;
64052;SDS011;50299;49.524;8.536;2024-03-22T13:57:18;2.17;;;1.98;;
64052;SDS011;50299;49.524;8.536;2024-03-22T13:59:43;5.05;;;1.88;;
64052;SDS011;50299;49.524;8.536;2024-03-22T14:02:09;1.65;;;1.55;;
64052;SDS011;50299;49.524;8.536;2024-03-22T14:04:35;3.13;;;2.03;;
64052;SDS011;50299;49.524;8.536;2024-03-22T14:07:01;2.10;;;1.63;;
64052;SDS011;50299;49.524;8.536;2024-03-22T14:11:58;5.32;;;2.22;;
64052;SDS011;50299;49.524;8.536;2024-03-22T14:14:27;2.63;;;1.80;;
64052;SDS011;50299;49.524;8.536;2024-03-22T14:16:54;1.98;;;1.60;;
64052;SDS011;50299;49.524;8.536;2024-03-22T14:19:20;3.90;;;2.33;;
64052;SDS011;50299;49.524;8.536;2024-03-22T14:21:49;1.95;;;1.80;;
64052;SDS011;50299;49.524;8.536;2024-03-22T14:24:14;2.58;;;1.88;;
64052;SDS011;50299;49.524;8.536;2024-03-22T14:26:41;2.50;;;2.03;;
64052;SDS011;50299;49.524;8.536;2024-03-22T14:29:10;1.70;;;1.60;;
64052;SDS011;50299;49.524;8.536;2024-03-22T14:31:36;2.58;;;2.33;;
64052;SDS011;50299;49.524;8.536;2024-03-22T14:34:02;6.75;;;1.73;;
64052;SDS011;50299;49.524;8.536;2024-03-22T14:36:29;3.35;;;1.80;;
64052;SDS011;50299;49.524;8.536;2024-03-22T14:38:54;3.78;;;1.75;;
64052;SDS011;50299;49.524;8.536;2024-03-22T14:41:20;3.25;;;1.55;;
64052;SDS011;50299;49.524;8.536;2024-03-22T14:43:45;3.30;;;1.60;;
64052;SDS011;50299;49.524;8.536;2024-03-22T14:46:11;2.38;;;1.88;;
64052;SDS011;50299;49.524;8.536;2024-03-22T14:48:36;4.25;;;2.00;;
64052;SDS011;50299;49.524;8.536;2024-03-22T14:51:02;2.38;;;1.90;;
64052;SDS011;50299;49.524;8.536;2024-03-22T14:53:28;3.80;;;1.85;;